createdAt,value
2022-12-17T00:00:50.830Z,-2.51
2022-12-17T00:03:37.589Z,-2.51
2022-12-17T00:06:23.649Z,-2.52
2022-12-17T00:09:09.772Z,-2.55
2022-12-17T00:11:56.126Z,-2.53
2022-12-17T00:14:42.019Z,-2.52
2022-12-17T00:17:27.732Z,-2.49
2022-12-17T00:20:13.647Z,-2.41
2022-12-17T00:22:59.570Z,-2.44
2022-12-17T00:25:45.904Z,-2.45
2022-12-17T00:28:32.835Z,-2.51
2022-12-17T00:31:19.177Z,-2.55
2022-12-17T00:34:20.711Z,-2.60
2022-12-17T00:37:06.620Z,-2.59
2022-12-17T00:39:57.633Z,-2.55
2022-12-17T00:42:44.919Z,-2.50
2022-12-17T00:45:30.821Z,-2.44
2022-12-17T00:48:16.522Z,-2.45
2022-12-17T00:51:02.333Z,-2.50
2022-12-17T00:53:48.082Z,-2.52
2022-12-17T00:56:33.780Z,-2.53
2022-12-17T00:59:19.690Z,-2.63
2022-12-17T01:02:05.608Z,-2.66
2022-12-17T01:04:52.184Z,-2.70
2022-12-17T01:07:37.833Z,-2.72
2022-12-17T01:10:24.201Z,-2.66
2022-12-17T01:13:10.091Z,-2.65
2022-12-17T01:15:56.735Z,-2.68
2022-12-17T01:18:42.575Z,-2.61
2022-12-17T01:21:28.518Z,-2.61
2022-12-17T01:24:14.484Z,-2.57
2022-12-17T01:27:00.307Z,-2.56
2022-12-17T01:29:46.184Z,-2.55
2022-12-17T01:32:32.030Z,-2.49
2022-12-17T01:35:18.152Z,-2.51
2022-12-17T01:38:04.409Z,-2.49
2022-12-17T01:40:50.341Z,-2.51
2022-12-17T01:43:55.725Z,-2.45
2022-12-17T01:46:43.269Z,-2.41
2022-12-17T01:49:30.977Z,-2.45
2022-12-17T01:52:18.320Z,-2.50
2022-12-17T01:55:04.604Z,-2.52
2022-12-17T01:57:50.948Z,-2.48
2022-12-17T02:00:37.799Z,-2.39
2022-12-17T02:03:24.127Z,-2.36
2022-12-17T02:06:55.565Z,-2.29
2022-12-17T02:10:04.375Z,-2.30
2022-12-17T02:12:52.679Z,-2.26
2022-12-17T02:15:55.318Z,-2.25
2022-12-17T02:18:50.023Z,-2.23
2022-12-17T02:21:37.891Z,-2.28
2022-12-17T02:24:40.608Z,-2.31
2022-12-17T02:27:28.560Z,-2.28
2022-12-17T02:30:20.263Z,-2.27
2022-12-17T02:33:08.095Z,-2.31
2022-12-17T02:36:18.981Z,-2.37
2022-12-17T02:39:04.788Z,-2.42
2022-12-17T02:42:08.381Z,-2.49
2022-12-17T02:44:55.321Z,-2.46
2022-12-17T02:47:43.058Z,-2.42
2022-12-17T02:50:30.548Z,-2.34
2022-12-17T02:53:29.322Z,-2.29
2022-12-17T02:56:15.587Z,-2.30
2022-12-17T02:59:01.220Z,-2.28
2022-12-17T03:01:47.124Z,-2.38
2022-12-17T03:04:32.970Z,-2.35
2022-12-17T03:07:33.253Z,-2.42
2022-12-17T03:10:18.858Z,-2.43
2022-12-17T03:13:04.575Z,-2.34
2022-12-17T03:15:50.293Z,-2.30
2022-12-17T03:18:36.030Z,-2.32
2022-12-17T03:21:21.867Z,-2.39
2022-12-17T03:24:07.690Z,-2.44
2022-12-17T03:26:53.486Z,-2.54
2022-12-17T03:29:39.357Z,-2.58
2022-12-17T03:32:21.606Z,-2.56
2022-12-17T03:35:07.606Z,-2.57
2022-12-17T03:37:53.300Z,-2.54
2022-12-17T03:40:38.963Z,-2.50
2022-12-17T03:43:29.688Z,-2.49
2022-12-17T03:46:16.080Z,-2.50
2022-12-17T03:49:01.832Z,-2.48
2022-12-17T03:51:47.561Z,-2.56
2022-12-17T03:54:33.273Z,-2.61
2022-12-17T03:57:18.877Z,-2.60
2022-12-17T04:00:04.668Z,-2.65
2022-12-17T04:02:50.868Z,-2.71
2022-12-17T04:05:36.789Z,-2.76
2022-12-17T04:08:22.680Z,-2.82
2022-12-17T04:11:08.367Z,-2.78
2022-12-17T04:13:53.744Z,-2.78
2022-12-17T04:16:39.588Z,-2.81
2022-12-17T04:19:25.211Z,-2.87
2022-12-17T04:22:11.229Z,-2.98
2022-12-17T04:24:56.771Z,-3.04
2022-12-17T04:27:43.027Z,-3.11
2022-12-17T04:30:29.523Z,-3.14
2022-12-17T04:33:15.242Z,-3.18
2022-12-17T04:36:00.662Z,-3.08
2022-12-17T04:38:46.508Z,-2.99
2022-12-17T04:41:32.143Z,-2.87
2022-12-17T04:44:18.158Z,-2.78
2022-12-17T04:47:03.796Z,-2.77
2022-12-17T04:49:49.626Z,-2.77
2022-12-17T04:52:35.708Z,-2.78
2022-12-17T04:55:26.752Z,-2.71
2022-12-17T04:58:12.789Z,-2.65
2022-12-17T05:00:58.600Z,-2.57
2022-12-17T05:03:44.449Z,-2.46
2022-12-17T05:06:30.253Z,-2.43
2022-12-17T05:09:16.298Z,-2.37
2022-12-17T05:12:02.014Z,-2.34
2022-12-17T05:14:48.416Z,-2.30
2022-12-17T05:17:34.137Z,-2.32
2022-12-17T05:20:20.031Z,-2.30
2022-12-17T05:23:05.895Z,-2.24
2022-12-17T05:25:51.577Z,-2.18
2022-12-17T05:28:37.700Z,-2.15
2022-12-17T05:31:23.562Z,-2.16
2022-12-17T05:34:09.282Z,-2.19
2022-12-17T05:36:56.551Z,-2.19
2022-12-17T05:39:56.857Z,-2.13
2022-12-17T05:42:42.867Z,-2.01
2022-12-17T05:45:29.076Z,-1.94
2022-12-17T05:48:17.827Z,-1.88
2022-12-17T05:51:09.101Z,-1.82
2022-12-17T05:53:56.117Z,-1.83
2022-12-17T05:56:41.594Z,-1.82
2022-12-17T05:59:23.807Z,-1.87
2022-12-17T06:02:09.824Z,-1.86
2022-12-17T06:05:01.802Z,-1.81
2022-12-17T06:07:48.437Z,-1.79
2022-12-17T06:10:34.349Z,-1.77
2022-12-17T06:13:20.261Z,-1.80
2022-12-17T06:16:09.305Z,-1.81
2022-12-17T06:18:55.637Z,-1.90
2022-12-17T06:21:41.924Z,-1.81
2022-12-17T06:24:27.712Z,-1.81
2022-12-17T06:27:13.610Z,-1.82
2022-12-17T06:29:59.403Z,-1.84
2022-12-17T06:32:44.984Z,-1.80
2022-12-17T06:35:30.761Z,-1.73
2022-12-17T06:38:23.203Z,-1.70
2022-12-17T06:41:10.427Z,-1.65
2022-12-17T06:43:56.607Z,-1.62
2022-12-17T06:46:42.611Z,-1.64
2022-12-17T06:49:28.507Z,-1.62
2022-12-17T06:52:14.157Z,-1.60
2022-12-17T06:54:59.916Z,-1.58
2022-12-17T06:57:50.199Z,-1.51
2022-12-17T07:00:36.463Z,-1.48
2022-12-17T07:03:22.479Z,-1.54
2022-12-17T07:06:08.289Z,-1.52
2022-12-17T07:08:54.140Z,-1.53
2022-12-17T07:11:40.523Z,-1.55
2022-12-17T07:14:26.280Z,-1.53
2022-12-17T07:17:11.512Z,-1.50
2022-12-17T07:19:57.119Z,-1.46
2022-12-17T07:22:43.274Z,-1.45
2022-12-17T07:25:32.430Z,-1.50
2022-12-17T07:28:18.344Z,-1.47
2022-12-17T07:31:04.297Z,-1.43
2022-12-17T07:33:50.210Z,-1.43
2022-12-17T07:36:36.321Z,-1.41
2022-12-17T07:39:22.210Z,-1.36
2022-12-17T07:42:08.219Z,-1.38
2022-12-17T07:44:54.137Z,-1.38
2022-12-17T07:47:40.103Z,-1.40
2022-12-17T07:50:26.344Z,-1.43
2022-12-17T07:53:22.970Z,-1.50
2022-12-17T07:56:09.936Z,-1.47
2022-12-17T07:58:55.551Z,-1.46
2022-12-17T08:01:41.521Z,-1.44
2022-12-17T08:04:41.718Z,-1.38
2022-12-17T08:07:27.837Z,-1.36
2022-12-17T08:10:13.600Z,-1.39
2022-12-17T08:12:59.379Z,-1.34
2022-12-17T08:15:45.291Z,-1.37
2022-12-17T08:18:30.997Z,-1.33
2022-12-17T08:21:16.694Z,-1.30
2022-12-17T08:24:02.409Z,-1.47
2022-12-17T08:26:48.521Z,-1.46
2022-12-17T08:29:36.850Z,-1.38
2022-12-17T08:32:22.970Z,-1.43
2022-12-17T08:35:08.652Z,-1.37
2022-12-17T08:37:54.390Z,-1.37
2022-12-17T08:40:40.279Z,-1.31
2022-12-17T08:43:25.928Z,-1.40
2022-12-17T08:46:12.265Z,-1.44
2022-12-17T08:48:58.349Z,-1.48
2022-12-17T08:51:44.750Z,-1.44
2022-12-17T08:54:30.627Z,-1.35
2022-12-17T08:57:27.001Z,-1.28
2022-12-17T09:00:16.836Z,-1.25
2022-12-17T09:03:02.937Z,-1.23
2022-12-17T09:05:48.979Z,-1.22
2022-12-17T09:08:35.258Z,-1.22
2022-12-17T09:11:21.138Z,-1.21
2022-12-17T09:14:15.418Z,-1.20
2022-12-17T09:17:01.810Z,-1.08
2022-12-17T09:19:47.777Z,-1.10
2022-12-17T09:22:42.037Z,-1.08
2022-12-17T09:25:27.845Z,-1.01
2022-12-17T09:28:13.923Z,-1.06
2022-12-17T09:30:59.867Z,-1.00
2022-12-17T09:33:45.660Z,-1.05
2022-12-17T09:36:31.427Z,-1.12
2022-12-17T09:39:17.216Z,-1.02
2022-12-17T09:42:33.190Z,-1.00
2022-12-17T09:45:30.996Z,-1.00
2022-12-17T09:48:46.891Z,-0.93
2022-12-17T09:51:45.843Z,-0.90
2022-12-17T09:54:47.840Z,-0.92
2022-12-17T09:57:39.881Z,-0.88
2022-12-17T10:00:39.319Z,-0.96
2022-12-17T10:03:34.063Z,-0.88
2022-12-17T10:06:29.112Z,-0.83
2022-12-17T10:09:20.287Z,-0.76
2022-12-17T10:12:06.029Z,-0.72
2022-12-17T10:14:52.000Z,-0.69
2022-12-17T10:17:40.411Z,-0.69
2022-12-17T10:21:05.290Z,-0.68
2022-12-17T10:23:53.314Z,-0.63
2022-12-17T10:26:48.704Z,-0.58
2022-12-17T10:29:48.078Z,-0.77
2022-12-17T10:32:33.964Z,-0.82
2022-12-17T10:35:42.936Z,-0.89
2022-12-17T10:38:48.465Z,-0.84
2022-12-17T10:41:54.591Z,-0.90
2022-12-17T10:44:54.360Z,-0.88
2022-12-17T10:47:46.653Z,-0.82
2022-12-17T10:50:40.388Z,-0.77
2022-12-17T10:53:42.580Z,-0.83
2022-12-17T10:56:44.584Z,-0.85
2022-12-17T10:59:51.089Z,-1.07
2022-12-17T11:02:45.208Z,-1.01
2022-12-17T11:05:47.719Z,-0.99
2022-12-17T11:08:35.371Z,-1.18
2022-12-17T11:11:26.813Z,-1.05
2022-12-17T11:14:14.431Z,-1.06
2022-12-17T11:17:13.628Z,-1.11
2022-12-17T11:20:17.782Z,-1.17
2022-12-17T11:23:07.809Z,-1.08
2022-12-17T11:26:12.000Z,-1.33
2022-12-17T11:28:58.091Z,-1.30
2022-12-17T11:31:50.050Z,-1.31
2022-12-17T11:34:50.254Z,-1.27
2022-12-17T11:37:39.815Z,-1.38
2022-12-17T11:40:53.046Z,-1.27
2022-12-17T11:43:49.452Z,-1.30
2022-12-17T11:47:02.328Z,-1.59
2022-12-17T11:50:10.963Z,-1.54
2022-12-17T11:53:54.750Z,-1.46
2022-12-17T11:57:02.059Z,-1.51
2022-12-17T12:00:15.089Z,-1.60
2022-12-17T12:03:01.010Z,-1.59
2022-12-17T12:06:09.729Z,-1.49
2022-12-17T12:09:35.479Z,-1.65
2022-12-17T12:12:33.545Z,-1.61
2022-12-17T12:15:43.308Z,-1.70
2022-12-17T12:18:46.646Z,-1.71
2022-12-17T12:22:15.111Z,-1.68
2022-12-17T12:25:41.722Z,-1.77
2022-12-17T12:28:43.732Z,-1.71
2022-12-17T12:32:12.904Z,-1.71
2022-12-17T12:34:58.990Z,-1.66
2022-12-17T12:37:45.261Z,-1.58
2022-12-17T12:40:47.614Z,-1.55
2022-12-17T12:43:51.201Z,-1.42
2022-12-17T12:46:45.500Z,-1.35
2022-12-17T12:49:59.873Z,-1.38
2022-12-17T12:53:01.943Z,-1.29
2022-12-17T12:56:01.578Z,-1.28
2022-12-17T12:58:50.506Z,-1.20
2022-12-17T13:01:36.951Z,-1.42
2022-12-17T13:04:53.272Z,-1.38
2022-12-17T13:07:30.929Z,-1.27
2022-12-17T13:10:00.278Z,-1.52
2022-12-17T13:12:34.821Z,-1.40
2022-12-17T13:15:08.860Z,-1.43
2022-12-17T13:17:56.062Z,-1.38
2022-12-17T13:20:34.669Z,-1.40
2022-12-17T13:23:39.203Z,-1.54
2022-12-17T13:26:46.234Z,-1.79
2022-12-17T13:29:35.587Z,-1.59
2022-12-17T13:32:04.045Z,-1.61
2022-12-17T13:35:18.746Z,-1.89
2022-12-17T13:38:38.313Z,-2.12
2022-12-17T13:41:16.681Z,-2.23
2022-12-17T13:44:03.153Z,-2.26
2022-12-17T13:46:37.528Z,-2.21
2022-12-17T13:49:24.698Z,-2.14
2022-12-17T13:52:12.018Z,-2.06
2022-12-17T13:54:40.828Z,-2.03
2022-12-17T13:57:27.288Z,-2.05
2022-12-17T13:59:59.265Z,-1.92
2022-12-17T14:02:31.432Z,-2.03
2022-12-17T14:05:23.698Z,-1.94
2022-12-17T14:07:52.815Z,-2.08
2022-12-17T14:10:21.490Z,-2.11
2022-12-17T14:12:50.128Z,-2.07
2022-12-17T14:15:29.946Z,-2.14
2022-12-17T14:17:58.987Z,-2.13
2022-12-17T14:20:31.857Z,-2.06
2022-12-17T14:23:06.700Z,-1.92
2022-12-17T14:25:39.036Z,-1.80
2022-12-17T14:28:38.492Z,-1.87
2022-12-17T14:31:31.333Z,-1.93
2022-12-17T14:34:12.022Z,-1.97
2022-12-17T14:36:44.967Z,-1.99
2022-12-17T14:39:30.362Z,-1.97
2022-12-17T14:42:32.610Z,-2.12
2022-12-17T14:45:08.572Z,-2.21
2022-12-17T14:47:39.281Z,-2.18
2022-12-17T14:50:13.298Z,-2.25
2022-12-17T14:52:43.160Z,-2.24
2022-12-17T14:55:30.753Z,-2.31
2022-12-17T14:58:14.787Z,-2.34
2022-12-17T15:01:09.142Z,-2.28
2022-12-17T15:03:46.238Z,-2.22
2022-12-17T15:06:21.199Z,-2.16
2022-12-17T15:08:53.312Z,-2.09
2022-12-17T15:11:23.558Z,-2.14
2022-12-17T15:13:56.357Z,-2.18
2022-12-17T15:16:25.551Z,-2.25
2022-12-17T15:18:54.068Z,-2.35
2022-12-17T15:21:23.127Z,-2.31
2022-12-17T15:23:51.606Z,-2.27
2022-12-17T15:26:21.344Z,-2.11
2022-12-17T15:28:49.951Z,-1.93
2022-12-17T15:31:23.185Z,-1.74
2022-12-17T15:33:53.441Z,-1.66
2022-12-17T15:36:22.001Z,-1.61
2022-12-17T15:38:50.709Z,-1.54
2022-12-17T15:41:36.418Z,-1.46
2022-12-17T15:44:05.049Z,-1.44
2022-12-17T15:46:33.576Z,-1.44
2022-12-17T15:49:02.489Z,-1.48
2022-12-17T15:51:31.011Z,-1.44
2022-12-17T15:53:59.513Z,-1.42
2022-12-17T15:56:29.721Z,-1.44
2022-12-17T15:59:00.945Z,-1.43
2022-12-17T16:01:29.819Z,-1.37
2022-12-17T16:03:59.515Z,-1.34
2022-12-17T16:06:27.954Z,-1.35
2022-12-17T16:08:56.381Z,-1.42
2022-12-17T16:11:24.825Z,-1.38
2022-12-17T16:13:57.092Z,-1.42
2022-12-17T16:16:25.988Z,-1.47
2022-12-17T16:18:54.576Z,-1.54
2022-12-17T16:21:23.096Z,-1.48
2022-12-17T16:23:51.674Z,-1.39
2022-12-17T16:26:20.096Z,-1.37
2022-12-17T16:28:48.517Z,-1.33
2022-12-17T16:31:17.351Z,-1.41
2022-12-17T16:33:48.253Z,-1.50
2022-12-17T16:36:20.934Z,-1.59
2022-12-17T16:38:52.248Z,-1.78
2022-12-17T16:41:21.494Z,-1.80
2022-12-17T16:43:50.456Z,-1.83
2022-12-17T16:46:26.424Z,-1.83
2022-12-17T16:48:55.597Z,-1.82
2022-12-17T16:51:29.144Z,-1.84
2022-12-17T16:53:58.621Z,-1.83
2022-12-17T16:56:29.518Z,-1.85
2022-12-17T16:58:58.477Z,-1.88
2022-12-17T17:01:29.143Z,-1.95
2022-12-17T17:03:58.480Z,-2.01
2022-12-17T17:06:33.247Z,-2.04
2022-12-17T17:09:07.441Z,-2.06
2022-12-17T17:11:36.205Z,-2.12
2022-12-17T17:14:05.239Z,-2.17
2022-12-17T17:16:34.293Z,-2.15
2022-12-17T17:19:03.310Z,-2.12
2022-12-17T17:21:41.284Z,-2.05
2022-12-17T17:24:20.397Z,-2.00
2022-12-17T17:26:50.983Z,-1.97
2022-12-17T17:29:19.918Z,-1.93
2022-12-17T17:34:39.717Z,-1.84
2022-12-17T17:37:08.549Z,-1.84
2022-12-17T17:39:37.109Z,-1.77
2022-12-17T17:42:05.910Z,-1.75
2022-12-17T17:44:34.474Z,-1.72
2022-12-17T17:47:03.500Z,-1.73
2022-12-17T17:49:32.131Z,-1.78
2022-12-17T17:52:09.530Z,-1.94
2022-12-17T17:54:39.571Z,-2.01
2022-12-17T17:57:09.656Z,-2.10
2022-12-17T17:59:39.413Z,-2.13
2022-12-17T18:02:09.058Z,-2.18
2022-12-17T18:04:38.039Z,-2.17
2022-12-17T18:07:24.790Z,-2.23
2022-12-17T18:09:54.423Z,-2.35
2022-12-17T18:12:40.378Z,-2.38
2022-12-17T18:15:18.157Z,-2.44
2022-12-17T18:17:51.313Z,-2.44
2022-12-17T18:20:20.205Z,-2.46
2022-12-17T18:22:50.503Z,-2.52
2022-12-17T18:25:20.341Z,-2.68
2022-12-17T18:27:48.783Z,-2.72
2022-12-17T18:30:17.595Z,-2.77
2022-12-17T18:32:48.888Z,-2.77
2022-12-17T18:35:17.355Z,-2.86
2022-12-17T18:37:45.981Z,-2.91
2022-12-17T18:40:14.577Z,-2.93
2022-12-17T18:43:00.354Z,-2.91
2022-12-17T18:45:28.853Z,-2.90
2022-12-17T18:47:57.610Z,-2.89
2022-12-17T18:50:26.085Z,-2.89
2022-12-17T18:52:54.599Z,-2.98
2022-12-17T18:55:23.106Z,-3.00
2022-12-17T18:57:51.564Z,-2.97
2022-12-17T19:00:20.323Z,-3.04
2022-12-17T19:02:49.078Z,-3.22
2022-12-17T19:05:17.739Z,-3.11
2022-12-17T19:07:46.270Z,-3.08
2022-12-17T19:10:14.747Z,-3.10
2022-12-17T19:12:43.239Z,-3.05
2022-12-17T19:15:12.164Z,-3.04
2022-12-17T19:17:40.595Z,-3.00
2022-12-17T19:20:09.663Z,-2.99
2022-12-17T19:22:38.073Z,-2.96
2022-12-17T19:25:06.892Z,-2.89
2022-12-17T19:27:35.020Z,-2.97
2022-12-17T19:30:03.721Z,-3.07
2022-12-17T19:32:32.342Z,-3.16
2022-12-17T19:35:00.774Z,-3.12
2022-12-17T19:37:29.179Z,-3.22
2022-12-17T19:39:57.681Z,-3.21
2022-12-17T19:42:26.429Z,-3.22
2022-12-17T19:44:57.117Z,-3.22
2022-12-17T19:47:26.065Z,-3.29
2022-12-17T19:49:54.609Z,-3.29
2022-12-17T19:52:23.087Z,-3.27
2022-12-17T19:54:51.690Z,-3.25
2022-12-17T19:57:20.112Z,-3.25
2022-12-17T19:59:48.550Z,-3.23
2022-12-17T20:02:17.456Z,-3.25
2022-12-17T20:04:46.106Z,-3.25
2022-12-17T20:07:14.563Z,-3.24
2022-12-17T20:09:44.698Z,-3.27
2022-12-17T20:12:13.941Z,-3.34
2022-12-17T20:14:42.596Z,-3.31
2022-12-17T20:17:11.558Z,-3.29
2022-12-17T20:19:40.195Z,-3.44
2022-12-17T20:22:08.804Z,-3.45
2022-12-17T20:24:39.221Z,-3.45
2022-12-17T20:27:08.118Z,-3.50
2022-12-17T20:29:36.952Z,-3.55
2022-12-17T20:32:05.663Z,-3.63
2022-12-17T20:34:34.292Z,-3.60
2022-12-17T20:37:02.826Z,-3.62
2022-12-17T20:39:32.259Z,-3.58
2022-12-17T20:42:00.968Z,-3.62
2022-12-17T20:44:29.497Z,-3.74
2022-12-17T20:46:58.142Z,-3.71
2022-12-17T20:49:26.663Z,-3.72
2022-12-17T20:51:55.287Z,-3.67
2022-12-17T20:54:23.928Z,-3.71
2022-12-17T20:56:52.471Z,-3.74
2022-12-17T20:59:21.319Z,-3.76
2022-12-17T21:01:55.571Z,-3.74
2022-12-17T21:04:24.906Z,-3.74
2022-12-17T21:06:53.768Z,-3.82
2022-12-17T21:09:22.897Z,-3.86
2022-12-17T21:11:51.529Z,-3.97
2022-12-17T21:14:20.472Z,-4.03
2022-12-17T21:16:49.380Z,-4.04
2022-12-17T21:19:20.174Z,-4.01
2022-12-17T21:21:49.161Z,-4.01
2022-12-17T21:24:17.697Z,-4.00
2022-12-17T21:26:47.841Z,-3.98
2022-12-17T21:29:17.376Z,-3.98
2022-12-17T21:31:49.342Z,-4.07
2022-12-17T21:34:25.050Z,-4.15
2022-12-17T21:36:54.152Z,-4.14
2022-12-17T21:39:22.911Z,-4.28
2022-12-17T21:42:09.166Z,-4.33
2022-12-17T21:44:38.278Z,-4.38
2022-12-17T21:47:07.106Z,-4.45
2022-12-17T21:49:36.144Z,-4.48
2022-12-17T21:52:04.864Z,-4.54
2022-12-17T21:54:36.013Z,-4.49
2022-12-17T21:57:05.628Z,-4.48
2022-12-17T21:59:34.181Z,-4.46
2022-12-17T22:02:02.756Z,-4.53
2022-12-17T22:04:31.509Z,-4.56
2022-12-17T22:07:07.047Z,-4.60
2022-12-17T22:09:51.495Z,-4.59
2022-12-17T22:12:43.842Z,-4.59
2022-12-17T22:15:13.255Z,-4.59
2022-12-17T22:17:42.584Z,-4.61
2022-12-17T22:20:12.277Z,-4.61
2022-12-17T22:22:40.926Z,-4.54
2022-12-17T22:25:11.546Z,-4.54
2022-12-17T22:27:42.099Z,-4.61
2022-12-17T22:30:34.552Z,-4.65
2022-12-17T22:33:09.406Z,-4.67
2022-12-17T22:37:18.862Z,-4.62
2022-12-17T22:43:30.922Z,-4.62
2022-12-17T22:44:34.480Z,-4.56
2022-12-17T22:44:41.010Z,-4.53
2022-12-17T22:47:11.525Z,-4.48
2022-12-17T22:49:43.366Z,-4.55
2022-12-17T22:52:13.086Z,-4.56
2022-12-17T22:54:43.459Z,-4.57
2022-12-17T22:57:34.900Z,-4.57
2022-12-17T23:00:01.078Z,-4.50
2022-12-17T23:02:29.610Z,-4.61
2022-12-17T23:04:58.114Z,-4.66
2022-12-17T23:07:31.597Z,-4.71
2022-12-17T23:10:00.495Z,-4.75
2022-12-17T23:12:42.879Z,-4.76
2022-12-17T23:15:11.620Z,-4.83
2022-12-17T23:17:40.520Z,-4.85
2022-12-17T23:20:09.496Z,-4.88
2022-12-17T23:22:38.325Z,-4.88
2022-12-17T23:25:07.229Z,-4.90
2022-12-17T23:27:35.832Z,-4.92
2022-12-17T23:30:07.471Z,-4.92
2022-12-17T23:32:37.407Z,-4.95
2022-12-17T23:35:06.372Z,-4.99
2022-12-17T23:37:39.520Z,-4.97
2022-12-17T23:40:13.045Z,-4.98
2022-12-17T23:42:41.838Z,-4.98
2022-12-17T23:45:11.971Z,-4.87
2022-12-17T23:47:41.102Z,-4.83
2022-12-17T23:50:11.175Z,-4.88
2022-12-17T23:52:39.891Z,-4.92
2022-12-17T23:55:09.084Z,-4.90
2022-12-17T23:57:37.507Z,-4.88
